Flight Track Log - Related Links

Times and Time Zones

All times are in EDT time to prevent confusion due to time zone crossing. See the N1881Q flight status page for this flight to view local times or setup timezone preferences in your user account.

Time Position Orientation Groundspeed Altitude Reporting Facility
EDT Latitude Longitude Course Direction KTS MPH feet Rate Location/Type
Mon 02:26:20 PM 42.4042 -76.5750 56° Northeast 299 344 6,900  Level New York Center
Mon 02:27:20 PM 42.3306 -76.6300 209° Southwest 279 321 8,800 1,550 Climbing New York Center
Mon 02:28:20 PM 42.2400 -76.6081 170° South 319 367 10,000 600 Climbing New York Center
Mon 02:29:20 PM 42.1378 -76.5711 165° South 357 411 10,000  Level New York Center
Mon 02:30:00 PM 42.4914 -76.4587 56° Northeast  Level Estimated
Mon 02:30:20 PM 42.0358 -76.5286 163° South 375 432 10,000  Level New York Center
Mon 02:31:00 PM 42.4914 -76.4587 56° Northeast  Level Estimated
Mon 02:31:20 PM 41.9353 -76.4947 166° South 375 432 10,000  Level New York Center
Mon 02:32:20 PM 41.8331 -76.4553 164° South 380 437 10,000  Level New York Center
Mon 02:33:20 PM 41.7419 -76.4892 196° South 345 397 10,000  Level New York Center
Mon 02:34:20 PM 41.7556 -76.5933 280° West 221 254 10,000  Level New York Center
Mon 02:35:20 PM 41.8528 -76.6100 353° North 168 193 10,000  Level New York Center
Mon 02:36:20 PM 41.9436 -76.5792 14° North 253 291 10,000  Level New York Center
Mon 02:37:20 PM 42.0353 -76.5397 18° North 298 343 10,000 -300 Level New York Center
Mon 02:38:20 PM 42.1183 -76.5022 19° North 310 357 9,400 -1,050 Descending New York Center
Mon 02:39:20 PM 42.1911 -76.4608 23° Northeast 295 339 7,900 -1,950 Descending New York Center
Mon 02:40:20 PM 42.2486 -76.3875 43° Northeast 280 322 5,500 -1,900 Descending New York Center
Mon 02:41:20 PM 42.3167 -76.3092 40° Northeast 280 322 4,100 -1,050 Descending New York Center
Mon 02:42:20 PM 42.3778 -76.2975 North 241 277 3,400 -400 Descending New York Center
Mon 02:43:20 PM 42.4169 -76.3514 315° West 187 215 3,300 -500 Descending New York Center
Mon 02:44:20 PM 42.4378 -76.3925 304° West 157 181 2,400 -550 Descending New York Center
Mon 02:45:20 PM 42.4756 -76.4267 326° Northwest 157 181 2,200 3,300 Descending New York Center
Mon 02:46:20 PM 42.5097 -76.4578 326° Northwest 157 181 9,000 3,400 Climbing New York Center
Mon 02:47:20 PM 42.5456 -76.4889 327° Northwest 157 181 9,000  Level New York Center
Mon 02:48:20 PM 42.5794 -76.5200 326° Northwest 157 181 9,000  Level New York Center
Mon 02:49:20 PM 42.5875 -76.5264 330° Northwest 157 181 9,000  Level New York Center
Mon 02:50:20 PM 42.5875 -76.5264 90° East 157 181 9,000  Level New York Center
Mon 02:52:20 PM 42.5875 -76.5264 90° East 157 181 9,000  Level New York Center
Mon 02:54:00 PM 42.4927 -76.4568 152° Southeast  Level FlightAware Approximate
Mon 03:01:00 PM 42.4914 -76.4587 154° Southeast  Level Estimated
Mon 03:02:00 PM 42.4914 -76.4587 154° Southeast  Level Estimated
Mon 03:03:00 PM 42.4914 -76.4587 154° Southeast  Level Estimated
Mon 03:04:00 PM 42.4914 -76.4587 154° Southeast  Level Estimated
Mon 03:05:00 PM 42.4914 -76.4587 154° Southeast  Level Estimated
Mon 03:06:00 PM 42.4914 -76.4587 154° Southeast  Level Estimated

Login

Don't have an account? Register now (free) for customized features, flight alerts, and more!